Time;durP1;ratioP1;P1;durP2;ratioP2;P2;SDS_P1;SDS_P2;PMS_P1;PMS_P2;Temp;Humidity;BMP_temperature;BMP_pressure;BME280_temperature;BME280_humidity;BME280_pressure;Samples;Min_cycle;Max_cycle;Signal;HPM_P1;HPM_P2
2022/07/25 00:00:53;;;;;;;;;;;;;;;;;;2106268;28;19924;-45
2022/07/25 00:01:54;;;;;;;;;;;;;;;;;;2106242;28;19924;-44
2022/07/25 00:02:55;;;;;;;;;;;;;;;;;;2106233;28;19935;-45
2022/07/25 00:03:56;;;;;;;;;;;;;;;;;;2106304;28;19955;-45
2022/07/25 00:04:57;;;;;;;;;;;;;;;;;;2105957;28;19949;-45
2022/07/25 00:05:58;;;;;;;;;;;;;;;;;;2106247;28;19924;-44
2022/07/25 00:06:59;;;;;;;;;;;;;;;;;;2106282;28;20049;-45
2022/07/25 00:08:00;;;;;;;;;;;;;;;;;;2106238;28;20393;-44
2022/07/25 00:09:01;;;;;;;;;;;;;;;;;;2106129;28;20011;-45
2022/07/25 00:10:01;;;;;;;;;;;;;;;;;;2106343;28;20017;-46
2022/07/25 00:11:02;;;;;;;;;;;;;;;;;;2105041;28;20274;-45
2022/07/25 00:12:03;;;;;;;;;;;;;;;;;;2098035;28;19986;-44
2022/07/25 00:13:04;;;;;;;;;;;;;;;;;;2097911;28;20246;-45
2022/07/25 00:14:05;;;;;;;;;;;;;;;;;;2097809;28;19924;-45
2022/07/25 00:15:06;;;;;;;;;;;;;;;;;;2097928;28;19925;-45
2022/07/25 00:16:07;;;;;;;;;;;;;;;;;;2097761;28;19946;-45
2022/07/25 00:17:08;;;;;;;;;;;;;;;;;;2097978;28;19924;-45
2022/07/25 00:18:09;;;;;;;;;;;;;;;;;;2097856;28;19963;-46
2022/07/25 00:19:09;;;;;;;;;;;;;;;;;;2097856;28;19964;-45
2022/07/25 00:20:10;;;;;;;;;;;;;;;;;;2097767;28;19944;-45
2022/07/25 00:21:11;;;;;;;;;;;;;;;;;;2097718;28;19974;-45
2022/07/25 00:22:12;;;;;;;;;;;;;;;;;;2097746;28;20283;-47
2022/07/25 00:23:13;;;;;;;;;;;;;;;;;;2097730;28;19931;-46
2022/07/25 00:24:14;;;;;;;;;;;;;;;;;;2097835;28;19951;-45
2022/07/25 00:25:15;;;;;;;;;;;;;;;;;;2097691;28;19925;-46
2022/07/25 00:26:15;;;;;;;;;;;;;;;;;;2097736;28;20301;-45
2022/07/25 00:27:16;;;;;;;;;;;;;;;;;;2097730;28;19925;-45
2022/07/25 00:28:17;;;;;;;;;;;;;;;;;;2097786;28;19943;-45
2022/07/25 00:29:18;;;;;;;;;;;;;;;;;;2097709;28;19924;-45
2022/07/25 00:30:19;;;;;;;;;;;;;;;;;;2097964;28;19924;-45
2022/07/25 00:31:20;;;;;;;;;;;;;;;;;;2104549;28;19928;-45
2022/07/25 00:32:21;;;;;;;;;;;;;;;;;;2106439;28;19924;-45
2022/07/25 00:33:22;;;;;;;;;;;;;;;;;;2106190;28;20004;-46
2022/07/25 00:34:22;;;;;;;;;;;;;;;;;;2106111;28;19978;-46
2022/07/25 00:35:23;;;;;;;;;;;;;;;;;;2106037;28;19950;-45
2022/07/25 00:36:24;;;;;;;;;;;;;;;;;;2106154;28;19924;-44
2022/07/25 00:37:25;;;;;;;;;;;;;;;;;;2106059;28;19928;-45
2022/07/25 00:38:26;;;;;;;;;;;;;;;;;;2106114;28;19938;-45
2022/07/25 00:39:27;;;;;;;;;;;;;;;;;;2106181;28;20003;-46
2022/07/25 00:40:27;;;;;;;;;;;;;;;;;;2106008;28;19924;-45
2022/07/25 00:41:28;;;;;;;;;;;;;;;;;;2106132;28;19924;-45
2022/07/25 00:42:29;;;;;;;;;;;;;;;;;;2106114;28;20011;-44
2022/07/25 00:43:30;;;;;;;;;;;;;;;;;;2106007;28;20385;-45
2022/07/25 00:44:31;;;;;;;;;;;;;;;;;;2106019;28;19924;-45
2022/07/25 00:45:32;;;;;;;;;;;;;;;;;;2106073;28;20400;-45
2022/07/25 00:46:33;;;;;;;;;;;;;;;;;;2105901;28;20021;-45
2022/07/25 00:47:34;;;;;;;;;;;;;;;;;;2105991;28;19940;-46
2022/07/25 00:48:34;;;;;;;;;;;;;;;;;;2106099;28;19963;-44
2022/07/25 00:49:35;;;;;;;;;;;;;;;;;;2105915;28;19947;-44
2022/07/25 00:50:36;;;;;;;;;;;;;;;;;;2106063;28;19928;-46
2022/07/25 00:51:37;;;;;;;;;;;;;;;;;;2105910;28;19928;-45
2022/07/25 00:52:38;;;;;;;;;;;;;;;;;;2105925;28;19924;-44
2022/07/25 00:53:39;;;;;;;;;;;;;;;;;;2105978;28;19974;-45
2022/07/25 00:54:40;;;;;;;;;;;;;;;;;;2106158;28;19958;-45
2022/07/25 00:55:41;;;;;;;;;;;;;;;;;;2106152;28;19931;-46
2022/07/25 00:56:41;;;;;;;;;;;;;;;;;;2105873;28;20007;-46
2022/07/25 00:57:42;;;;;;;;;;;;;;;;;;2105923;28;20380;-47
2022/07/25 00:58:44;;;;;;;;;;;;;;;;;;2105978;28;20005;-45
2022/07/25 00:59:45;;;;;;;;;;;;;;;;;;2106106;28;20007;-46
2022/07/25 01:00:46;;;;;;;;;;;;;;;;;;2105920;28;19959;-46
2022/07/25 01:01:47;;;;;;;;;;;;;;;;;;2105883;28;20284;-46
2022/07/25 01:02:48;;;;;;;;;;;;;;;;;;2105875;28;19924;-46
2022/07/25 01:03:49;;;;;;;;;;;;;;;;;;2106176;28;20396;-45
2022/07/25 01:04:49;;;;;;;;;;;;;;;;;;2105934;28;19930;-45
2022/07/25 01:05:50;;;;;;;;;;;;;;;;;;2106178;28;19994;-45
2022/07/25 01:06:54;;;;;;;;;;;;;;;;;;2105931;28;20015;-45
2022/07/25 01:07:54;;;;;;;;;;;;;;;;;;2105862;28;19932;-45
2022/07/25 01:08:55;;;;;;;;;;;;;;;;;;2106057;28;20041;-45
2022/07/25 01:09:56;;;;;;;;;;;;;;;;;;2106018;28;19946;-45
2022/07/25 01:10:57;;;;;;;;;;;;;;;;;;2105513;28;20309;-45
2022/07/25 01:11:58;;;;;;;;;;;;;;;;;;2097489;28;19924;-45
2022/07/25 01:12:59;;;;;;;;;;;;;;;;;;2097608;28;20382;-45
2022/07/25 01:14:00;;;;;;;;;;;;;;;;;;2097642;28;19924;-45
2022/07/25 01:15:00;;;;;;;;;;;;;;;;;;2097622;28;20366;-45
2022/07/25 01:16:01;;;;;;;;;;;;;;;;;;2097380;28;19925;-46
2022/07/25 01:17:03;;;;;;;;;;;;;;;;;;2098782;28;19928;-45
2022/07/25 01:18:04;;;;;;;;;;;;;;;;;;2099003;28;20011;-45
2022/07/25 01:19:04;;;;;;;;;;;;;;;;;;2098960;28;19928;-45
2022/07/25 01:20:05;;;;;;;;;;;;;;;;;;2098964;28;19924;-45
2022/07/25 01:21:06;;;;;;;;;;;;;;;;;;2098895;28;20049;-45
2022/07/25 01:22:07;;;;;;;;;;;;;;;;;;2099106;28;20299;-45
2022/07/25 01:23:08;;;;;;;;;;;;;;;;;;2098815;28;20003;-45
2022/07/25 01:24:09;;;;;;;;;;;;;;;;;;2098910;28;20431;-45
2022/07/25 01:25:10;;;;;;;;;;;;;;;;;;2098816;28;19924;-46
2022/07/25 01:26:11;;;;;;;;;;;;;;;;;;2098799;28;19947;-46
2022/07/25 01:27:11;;;;;;;;;;;;;;;;;;2102753;28;19967;-45
2022/07/25 01:28:18;;;;;;;;;;;;;;;;;;2107149;28;20450;-44
2022/07/25 01:29:18;;;;;;;;;;;;;;;;;;2107267;28;19925;-45
2022/07/25 01:30:19;;;;;;;;;;;;;;;;;;2107326;28;19932;-46
2022/07/25 01:31:20;;;;;;;;;;;;;;;;;;2107245;28;20003;-45
2022/07/25 01:32:21;;;;;;;;;;;;;;;;;;2107112;28;19939;-45
2022/07/25 01:33:22;;;;;;;;;;;;;;;;;;2107564;28;20325;-44
2022/07/25 01:34:23;;;;;;;;;;;;;;;;;;2107253;28;19968;-45
2022/07/25 01:35:24;;;;;;;;;;;;;;;;;;2107402;28;20331;-45
2022/07/25 01:36:25;;;;;;;;;;;;;;;;;;2107157;28;19928;-45
2022/07/25 01:37:25;;;;;;;;;;;;;;;;;;2107086;28;20429;-45
2022/07/25 01:38:26;;;;;;;;;;;;;;;;;;2107150;28;19925;-46
2022/07/25 01:39:27;;;;;;;;;;;;;;;;;;2107363;28;20011;-47
2022/07/25 01:40:28;;;;;;;;;;;;;;;;;;2107088;28;19962;-46
2022/07/25 01:41:29;;;;;;;;;;;;;;;;;;2107080;28;20373;-45
2022/07/25 01:42:30;;;;;;;;;;;;;;;;;;2107350;28;19924;-46
2022/07/25 01:43:30;;;;;;;;;;;;;;;;;;2107259;28;19928;-46
2022/07/25 01:44:31;;;;;;;;;;;;;;;;;;2107185;28;20415;-46
2022/07/25 01:45:32;;;;;;;;;;;;;;;;;;2107268;28;20023;-45
2022/07/25 01:46:33;;;;;;;;;;;;;;;;;;2107155;28;19951;-46
2022/07/25 01:47:34;;;;;;;;;;;;;;;;;;2107167;28;19930;-46
2022/07/25 01:48:35;;;;;;;;;;;;;;;;;;2107242;28;19924;-45
2022/07/25 01:49:36;;;;;;;;;;;;;;;;;;2107123;28;19924;-45
2022/07/25 01:50:37;;;;;;;;;;;;;;;;;;2107408;28;19928;-45
2022/07/25 01:51:37;;;;;;;;;;;;;;;;;;2107115;28;19924;-44
2022/07/25 01:52:39;;;;;;;;;;;;;;;;;;2107274;28;19924;-45
2022/07/25 01:53:39;;;;;;;;;;;;;;;;;;2107120;28;20008;-44
2022/07/25 01:54:40;;;;;;;;;;;;;;;;;;2107025;28;20408;-45
2022/07/25 01:55:41;;;;;;;;;;;;;;;;;;2107261;28;19924;-45
2022/07/25 01:56:42;;;;;;;;;;;;;;;;;;2106901;28;19994;-44
2022/07/25 01:57:43;;;;;;;;;;;;;;;;;;2107182;28;19957;-45
2022/07/25 01:58:50;;;;;;;;;;;;;;;;;;2107006;28;19924;-45
2022/07/25 01:59:51;;;;;;;;;;;;;;;;;;2107189;28;19978;-45
2022/07/25 02:00:52;;;;;;;;;;;;;;;;;;2107002;28;20246;-44
2022/07/25 02:01:53;;;;;;;;;;;;;;;;;;2106972;28;19935;-44
2022/07/25 02:04:09;;;;;;;;;;;;;;;;;;2106165;28;20319;-45
2022/07/25 02:05:10;;;;;;;;;;;;;;;;;;2106871;28;19924;-46
2022/07/25 02:06:12;;;;;;;;;;;;;;;;;;2106963;28;19924;-44
2022/07/25 02:07:12;;;;;;;;;;;;;;;;;;2107017;28;19967;-44
2022/07/25 02:08:13;;;;;;;;;;;;;;;;;;2106928;28;20012;-45
2022/07/25 02:09:14;;;;;;;;;;;;;;;;;;2107374;28;19931;-46
2022/07/25 02:10:15;;;;;;;;;;;;;;;;;;2106880;28;20369;-46
2022/07/25 02:11:16;;;;;;;;;;;;;;;;;;2104129;28;20355;-46
2022/07/25 02:12:17;;;;;;;;;;;;;;;;;;2098581;28;19931;-46
2022/07/25 02:13:18;;;;;;;;;;;;;;;;;;2098719;28;20058;-46
2022/07/25 02:14:19;;;;;;;;;;;;;;;;;;2098694;28;19975;-46
2022/07/25 02:15:19;;;;;;;;;;;;;;;;;;2098716;28;19929;-46
2022/07/25 02:16:20;;;;;;;;;;;;;;;;;;2098671;28;20020;-46
2022/07/25 02:17:21;;;;;;;;;;;;;;;;;;2098525;28;20270;-45
2022/07/25 02:18:22;;;;;;;;;;;;;;;;;;2098567;28;19924;-47
2022/07/25 02:19:23;;;;;;;;;;;;;;;;;;2098725;28;19929;-45
2022/07/25 02:20:24;;;;;;;;;;;;;;;;;;2098648;28;19925;-45
2022/07/25 02:21:25;;;;;;;;;;;;;;;;;;2098469;28;20278;-46
2022/07/25 02:22:26;;;;;;;;;;;;;;;;;;2098517;28;20023;-45
2022/07/25 02:23:27;;;;;;;;;;;;;;;;;;2102311;28;19924;-44
2022/07/25 02:24:27;;;;;;;;;;;;;;;;;;2106832;28;19984;-45
2022/07/25 02:25:28;;;;;;;;;;;;;;;;;;2107132;28;20026;-47
2022/07/25 02:26:29;;;;;;;;;;;;;;;;;;2106753;28;19924;-46
2022/07/25 02:27:30;;;;;;;;;;;;;;;;;;2106760;28;19924;-46
2022/07/25 02:28:31;;;;;;;;;;;;;;;;;;2106977;28;20019;-46
2022/07/25 02:29:32;;;;;;;;;;;;;;;;;;2106888;28;20388;-46
2022/07/25 02:30:32;;;;;;;;;;;;;;;;;;2107198;28;19967;-45
2022/07/25 02:31:34;;;;;;;;;;;;;;;;;;2106880;28;20265;-45
2022/07/25 02:32:34;;;;;;;;;;;;;;;;;;2106711;28;19924;-45
2022/07/25 02:33:35;;;;;;;;;;;;;;;;;;2106799;28;19924;-44
2022/07/25 02:34:36;;;;;;;;;;;;;;;;;;2106758;28;19934;-44
2022/07/25 02:35:37;;;;;;;;;;;;;;;;;;2107393;28;20019;-46
2022/07/25 02:36:38;;;;;;;;;;;;;;;;;;2106754;28;19928;-47
2022/07/25 02:37:39;;;;;;;;;;;;;;;;;;2106738;28;19982;-47
2022/07/25 02:38:39;;;;;;;;;;;;;;;;;;2106839;28;19924;-47
2022/07/25 02:39:40;;;;;;;;;;;;;;;;;;2106787;28;19924;-47
2022/07/25 02:40:41;;;;;;;;;;;;;;;;;;2106823;28;19924;-46
2022/07/25 02:41:42;;;;;;;;;;;;;;;;;;2107568;28;19924;-46
2022/07/25 02:42:43;;;;;;;;;;;;;;;;;;2107406;28;19932;-45
2022/07/25 02:43:44;;;;;;;;;;;;;;;;;;2106723;28;19936;-44
2022/07/25 02:44:45;;;;;;;;;;;;;;;;;;2107089;28;19958;-44
2022/07/25 02:45:46;;;;;;;;;;;;;;;;;;2106748;28;20386;-45
2022/07/25 02:46:46;;;;;;;;;;;;;;;;;;2107121;28;19925;-46
2022/07/25 02:47:47;;;;;;;;;;;;;;;;;;2106978;28;19955;-45
2022/07/25 02:48:48;;;;;;;;;;;;;;;;;;2106914;28;19959;-45
2022/07/25 02:49:49;;;;;;;;;;;;;;;;;;2106770;28;19970;-45
2022/07/25 02:50:50;;;;;;;;;;;;;;;;;;2107036;28;19945;-46
2022/07/25 02:51:51;;;;;;;;;;;;;;;;;;2107019;28;19932;-45
2022/07/25 02:52:52;;;;;;;;;;;;;;;;;;2106711;28;20011;-46
2022/07/25 02:53:53;;;;;;;;;;;;;;;;;;2106617;28;19927;-45
2022/07/25 02:54:58;;;;;;;;;;;;;;;;;;2106997;28;19931;-47
2022/07/25 02:55:59;;;;;;;;;;;;;;;;;;2106706;28;19924;-47
2022/07/25 02:57:00;;;;;;;;;;;;;;;;;;2106755;28;19931;-46
2022/07/25 02:58:01;;;;;;;;;;;;;;;;;;2106871;28;19974;-45
2022/07/25 02:59:02;;;;;;;;;;;;;;;;;;2106905;28;20018;-44
2022/07/25 03:00:03;;;;;;;;;;;;;;;;;;2106745;28;19928;-45
2022/07/25 03:01:04;;;;;;;;;;;;;;;;;;2106710;28;20072;-46
2022/07/25 03:02:05;;;;;;;;;;;;;;;;;;2106740;28;19971;-46
2022/07/25 03:03:05;;;;;;;;;;;;;;;;;;2106759;28;19939;-46
2022/07/25 03:04:06;;;;;;;;;;;;;;;;;;2106487;28;19924;-46
2022/07/25 03:05:08;;;;;;;;;;;;;;;;;;2106583;28;19924;-46
2022/07/25 03:06:09;;;;;;;;;;;;;;;;;;2106494;28;19931;-46
2022/07/25 03:07:09;;;;;;;;;;;;;;;;;;2107047;28;19932;-45
2022/07/25 03:08:10;;;;;;;;;;;;;;;;;;2106742;28;19924;-45
2022/07/25 03:09:11;;;;;;;;;;;;;;;;;;2106580;28;20023;-45
2022/07/25 03:10:12;;;;;;;;;;;;;;;;;;2106806;28;20400;-45
2022/07/25 03:11:13;;;;;;;;;;;;;;;;;;2104160;28;19979;-45
2022/07/25 03:12:14;;;;;;;;;;;;;;;;;;2098148;28;19960;-45
2022/07/25 03:13:15;;;;;;;;;;;;;;;;;;2098216;28;19925;-47
2022/07/25 03:14:16;;;;;;;;;;;;;;;;;;2098222;28;20019;-47
2022/07/25 03:15:17;;;;;;;;;;;;;;;;;;2098610;28;19973;-46
2022/07/25 03:16:17;;;;;;;;;;;;;;;;;;2098320;28;19924;-45
2022/07/25 03:17:18;;;;;;;;;;;;;;;;;;2098708;28;20011;-45
2022/07/25 03:18:19;;;;;;;;;;;;;;;;;;2098340;28;20089;-47
2022/07/25 03:19:20;;;;;;;;;;;;;;;;;;2098891;28;20355;-46
2022/07/25 03:20:21;;;;;;;;;;;;;;;;;;2106446;28;19931;-46
2022/07/25 03:21:22;;;;;;;;;;;;;;;;;;2106791;28;20031;-48
2022/07/25 03:22:23;;;;;;;;;;;;;;;;;;2106419;28;20378;-45
2022/07/25 03:23:25;;;;;;;;;;;;;;;;;;2106478;28;19924;-46
2022/07/25 03:24:26;;;;;;;;;;;;;;;;;;2106801;28;20392;-44
2022/07/25 03:25:27;;;;;;;;;;;;;;;;;;2106684;28;19963;-45
2022/07/25 03:26:28;;;;;;;;;;;;;;;;;;2107106;28;20028;-46
2022/07/25 03:27:29;;;;;;;;;;;;;;;;;;2106577;28;19924;-45
2022/07/25 03:28:30;;;;;;;;;;;;;;;;;;2106515;28;20012;-47
2022/07/25 03:29:31;;;;;;;;;;;;;;;;;;2106514;28;19993;-46
2022/07/25 03:30:32;;;;;;;;;;;;;;;;;;2106532;28;19924;-46
2022/07/25 03:31:33;;;;;;;;;;;;;;;;;;2106356;28;19928;-46
2022/07/25 03:32:34;;;;;;;;;;;;;;;;;;2107173;28;19924;-46
2022/07/25 03:33:35;;;;;;;;;;;;;;;;;;2106314;28;19924;-46
2022/07/25 03:34:35;;;;;;;;;;;;;;;;;;2106568;28;20014;-46
2022/07/25 03:35:36;;;;;;;;;;;;;;;;;;2106848;28;20014;-45
2022/07/25 03:36:37;;;;;;;;;;;;;;;;;;2106691;28;19935;-45
2022/07/25 03:37:38;;;;;;;;;;;;;;;;;;2106297;28;20397;-47
2022/07/25 03:38:39;;;;;;;;;;;;;;;;;;2106606;28;19924;-44
2022/07/25 03:39:40;;;;;;;;;;;;;;;;;;2105980;28;20023;-47
2022/07/25 03:40:41;;;;;;;;;;;;;;;;;;2106974;28;20058;-45
2022/07/25 03:41:42;;;;;;;;;;;;;;;;;;2106649;28;20338;-45
2022/07/25 03:42:43;;;;;;;;;;;;;;;;;;2106286;28;19932;-46
2022/07/25 03:43:43;;;;;;;;;;;;;;;;;;2106415;28;20032;-45
2022/07/25 03:44:45;;;;;;;;;;;;;;;;;;2106392;28;19928;-45
2022/07/25 03:45:45;;;;;;;;;;;;;;;;;;2106653;28;19930;-46
2022/07/25 03:46:46;;;;;;;;;;;;;;;;;;2106387;28;19967;-46
2022/07/25 03:47:47;;;;;;;;;;;;;;;;;;2106672;28;20333;-43
2022/07/25 03:48:48;;;;;;;;;;;;;;;;;;2106659;28;20015;-44
2022/07/25 03:49:49;;;;;;;;;;;;;;;;;;2106519;28;19924;-44
2022/07/25 03:50:50;;;;;;;;;;;;;;;;;;2106592;28;19931;-45
2022/07/25 03:51:51;;;;;;;;;;;;;;;;;;2106228;28;19969;-45
2022/07/25 03:52:52;;;;;;;;;;;;;;;;;;2106603;28;20293;-44
2022/07/25 03:54:01;;;;;;;;;;;;;;;;;;2106648;28;20483;-43
2022/07/25 03:55:02;;;;;;;;;;;;;;;;;;2106658;28;19942;-43
2022/07/25 03:56:03;;;;;;;;;;;;;;;;;;2106540;28;19928;-45
2022/07/25 03:57:04;;;;;;;;;;;;;;;;;;2106595;28;20409;-44
2022/07/25 03:58:05;;;;;;;;;;;;;;;;;;2106321;28;20003;-44
2022/07/25 03:59:06;;;;;;;;;;;;;;;;;;2106400;28;19956;-44
2022/07/25 04:00:07;;;;;;;;;;;;;;;;;;2106337;28;20020;-44
2022/07/25 04:01:08;;;;;;;;;;;;;;;;;;2106169;28;20011;-43
2022/07/25 04:02:10;;;;;;;;;;;;;;;;;;2106582;28;19925;-45
2022/07/25 04:03:11;;;;;;;;;;;;;;;;;;2106249;28;19924;-45
2022/07/25 04:04:11;;;;;;;;;;;;;;;;;;2106729;28;19928;-46
2022/07/25 04:05:13;;;;;;;;;;;;;;;;;;2106219;28;20442;-45
2022/07/25 04:06:13;;;;;;;;;;;;;;;;;;2106295;28;20373;-46
2022/07/25 04:07:14;;;;;;;;;;;;;;;;;;2106274;28;19924;-44
2022/07/25 04:08:15;;;;;;;;;;;;;;;;;;2106538;28;19951;-43
2022/07/25 04:09:16;;;;;;;;;;;;;;;;;;2106384;28;19924;-46
2022/07/25 04:10:17;;;;;;;;;;;;;;;;;;2106686;28;19970;-45
2022/07/25 04:11:18;;;;;;;;;;;;;;;;;;2102917;28;19924;-45
2022/07/25 04:12:18;;;;;;;;;;;;;;;;;;2098069;28;19925;-43
2022/07/25 04:13:19;;;;;;;;;;;;;;;;;;2098034;28;20183;-43
2022/07/25 04:14:20;;;;;;;;;;;;;;;;;;2097925;28;20008;-46
2022/07/25 04:15:21;;;;;;;;;;;;;;;;;;2097867;28;19994;-46
2022/07/25 04:16:22;;;;;;;;;;;;;;;;;;2105289;28;20015;-46
2022/07/25 04:17:23;;;;;;;;;;;;;;;;;;2106161;28;19927;-45
2022/07/25 04:18:24;;;;;;;;;;;;;;;;;;2106329;28;19924;-46
2022/07/25 04:19:28;;;;;;;;;;;;;;;;;;2106344;28;20412;-43
2022/07/25 04:20:29;;;;;;;;;;;;;;;;;;2106171;28;19934;-43
2022/07/25 04:21:30;;;;;;;;;;;;;;;;;;2106264;28;19946;-43
2022/07/25 04:22:31;;;;;;;;;;;;;;;;;;2106121;28;19947;-43
2022/07/25 04:23:32;;;;;;;;;;;;;;;;;;2106102;28;19931;-43
2022/07/25 04:24:32;;;;;;;;;;;;;;;;;;2106216;28;19931;-44
2022/07/25 04:25:33;;;;;;;;;;;;;;;;;;2106024;28;19928;-43
2022/07/25 04:26:34;;;;;;;;;;;;;;;;;;2106259;28;20054;-44
2022/07/25 04:27:35;;;;;;;;;;;;;;;;;;2106541;28;20065;-44
2022/07/25 04:28:36;;;;;;;;;;;;;;;;;;2106026;28;19985;-44
2022/07/25 04:29:37;;;;;;;;;;;;;;;;;;2106183;28;20247;-44
2022/07/25 04:30:37;;;;;;;;;;;;;;;;;;2106178;28;20357;-43
2022/07/25 04:31:38;;;;;;;;;;;;;;;;;;2106031;28;19974;-43
2022/07/25 04:32:39;;;;;;;;;;;;;;;;;;2106374;28;19932;-46
2022/07/25 04:33:40;;;;;;;;;;;;;;;;;;2106298;28;19965;-44
2022/07/25 04:34:42;;;;;;;;;;;;;;;;;;2106198;28;19947;-44
2022/07/25 04:35:43;;;;;;;;;;;;;;;;;;2106464;28;20073;-44
2022/07/25 04:36:44;;;;;;;;;;;;;;;;;;2105989;28;20367;-44
2022/07/25 04:37:45;;;;;;;;;;;;;;;;;;2106330;28;19923;-43
2022/07/25 04:38:46;;;;;;;;;;;;;;;;;;2106005;28;20381;-44
2022/07/25 04:39:47;;;;;;;;;;;;;;;;;;2106223;28;19959;-43
2022/07/25 04:40:48;;;;;;;;;;;;;;;;;;2106127;28;19931;-46
2022/07/25 04:41:48;;;;;;;;;;;;;;;;;;2106154;28;19977;-45
2022/07/25 04:42:49;;;;;;;;;;;;;;;;;;2106394;28;20391;-47
2022/07/25 04:43:50;;;;;;;;;;;;;;;;;;2106419;28;19932;-48
2022/07/25 04:44:51;;;;;;;;;;;;;;;;;;2106431;28;20300;-43
2022/07/25 04:45:52;;;;;;;;;;;;;;;;;;2106292;28;19924;-44
2022/07/25 04:46:53;;;;;;;;;;;;;;;;;;2106063;28;20436;-44
2022/07/25 04:47:54;;;;;;;;;;;;;;;;;;2106003;28;19924;-43
2022/07/25 04:48:55;;;;;;;;;;;;;;;;;;2106258;28;19969;-48
2022/07/25 04:49:56;;;;;;;;;;;;;;;;;;2106045;28;20011;-45
2022/07/25 04:50:57;;;;;;;;;;;;;;;;;;2106169;28;20349;-46
2022/07/25 04:51:58;;;;;;;;;;;;;;;;;;2107401;28;19985;-46
2022/07/25 04:52:59;;;;;;;;;;;;;;;;;;2108300;28;19924;-46
2022/07/25 04:54:00;;;;;;;;;;;;;;;;;;2107582;28;19923;-46
2022/07/25 04:55:02;;;;;;;;;;;;;;;;;;2107635;28;19924;-47
2022/07/25 04:56:04;;;;;;;;;;;;;;;;;;2107369;28;20481;-46
2022/07/25 04:57:04;;;;;;;;;;;;;;;;;;2107661;28;20154;-43
2022/07/25 04:58:05;;;;;;;;;;;;;;;;;;2107720;28;20388;-44
2022/07/25 04:59:06;;;;;;;;;;;;;;;;;;2107589;28;19966;-43
2022/07/25 05:00:07;;;;;;;;;;;;;;;;;;2107757;28;20277;-47
2022/07/25 05:01:08;;;;;;;;;;;;;;;;;;2107542;28;20385;-43
2022/07/25 05:02:09;;;;;;;;;;;;;;;;;;2107563;28;19924;-43
2022/07/25 05:03:10;;;;;;;;;;;;;;;;;;2107644;28;20369;-47
2022/07/25 05:04:11;;;;;;;;;;;;;;;;;;2107349;28;19931;-46
2022/07/25 05:05:12;;;;;;;;;;;;;;;;;;2108019;28;19974;-46
2022/07/25 05:06:21;;;;;;;;;;;;;;;;;;2107401;28;19924;-46
2022/07/25 05:07:22;;;;;;;;;;;;;;;;;;2107522;28;19924;-46
2022/07/25 05:08:23;;;;;;;;;;;;;;;;;;2107334;28;20324;-46
2022/07/25 05:09:23;;;;;;;;;;;;;;;;;;2107350;28;20175;-46
2022/07/25 05:10:24;;;;;;;;;;;;;;;;;;2107591;28;19967;-43
2022/07/25 05:11:25;;;;;;;;;;;;;;;;;;2103098;28;20392;-44
2022/07/25 05:12:26;;;;;;;;;;;;;;;;;;2104954;28;19967;-47
2022/07/25 05:13:27;;;;;;;;;;;;;;;;;;2107548;28;19924;-46
2022/07/25 05:14:28;;;;;;;;;;;;;;;;;;2107221;28;20323;-47
2022/07/25 05:15:29;;;;;;;;;;;;;;;;;;2107771;28;19954;-44
2022/07/25 05:16:30;;;;;;;;;;;;;;;;;;2107498;28;19954;-46
2022/07/25 05:17:30;;;;;;;;;;;;;;;;;;2107423;28;20242;-43
2022/07/25 05:18:31;;;;;;;;;;;;;;;;;;2107745;28;20027;-46
2022/07/25 05:19:32;;;;;;;;;;;;;;;;;;2107356;28;19959;-49
2022/07/25 05:20:33;;;;;;;;;;;;;;;;;;2107510;28;19957;-44
2022/07/25 05:21:34;;;;;;;;;;;;;;;;;;2107505;28;20015;-43
2022/07/25 05:22:35;;;;;;;;;;;;;;;;;;2107644;28;20010;-42
2022/07/25 05:23:36;;;;;;;;;;;;;;;;;;2107203;28;19924;-43
2022/07/25 05:24:37;;;;;;;;;;;;;;;;;;2107205;28;19928;-43
2022/07/25 05:25:37;;;;;;;;;;;;;;;;;;2107465;28;20381;-43
2022/07/25 05:26:38;;;;;;;;;;;;;;;;;;2107172;28;19924;-45
2022/07/25 05:27:39;;;;;;;;;;;;;;;;;;2107450;28;19924;-43
2022/07/25 05:28:40;;;;;;;;;;;;;;;;;;2107243;28;19951;-44
2022/07/25 05:29:41;;;;;;;;;;;;;;;;;;2107228;28;20293;-43
2022/07/25 05:30:42;;;;;;;;;;;;;;;;;;2107195;28;19924;-43
2022/07/25 05:31:43;;;;;;;;;;;;;;;;;;2107430;28;20065;-43
2022/07/25 05:32:44;;;;;;;;;;;;;;;;;;2107366;28;19964;-48
2022/07/25 05:33:45;;;;;;;;;;;;;;;;;;2107354;28;19924;-47
2022/07/25 05:34:45;;;;;;;;;;;;;;;;;;2107265;28;19943;-46
2022/07/25 05:35:46;;;;;;;;;;;;;;;;;;2107416;28;19924;-44
2022/07/25 05:36:47;;;;;;;;;;;;;;;;;;2107515;28;20033;-47
2022/07/25 05:37:48;;;;;;;;;;;;;;;;;;2107268;28;19939;-47
2022/07/25 05:38:49;;;;;;;;;;;;;;;;;;2107534;28;19931;-43
2022/07/25 05:39:50;;;;;;;;;;;;;;;;;;2107396;28;19946;-44
2022/07/25 05:40:51;;;;;;;;;;;;;;;;;;2107370;28;20000;-44
2022/07/25 05:41:52;;;;;;;;;;;;;;;;;;2106955;28;20345;-44
2022/07/25 05:42:53;;;;;;;;;;;;;;;;;;2107350;28;19924;-43
2022/07/25 05:43:53;;;;;;;;;;;;;;;;;;2107401;28;19932;-45
2022/07/25 05:44:54;;;;;;;;;;;;;;;;;;2107076;28;19924;-45
2022/07/25 05:45:55;;;;;;;;;;;;;;;;;;2107201;28;19978;-44
2022/07/25 05:46:56;;;;;;;;;;;;;;;;;;2107164;28;19985;-44
2022/07/25 05:47:57;;;;;;;;;;;;;;;;;;2107099;28;20381;-44
2022/07/25 05:48:58;;;;;;;;;;;;;;;;;;2107112;28;19928;-44
2022/07/25 05:49:59;;;;;;;;;;;;;;;;;;2107311;28;19939;-44
2022/07/25 05:51:00;;;;;;;;;;;;;;;;;;2106982;28;19971;-44
2022/07/25 05:52:01;;;;;;;;;;;;;;;;;;2107234;28;19924;-45
2022/07/25 05:53:01;;;;;;;;;;;;;;;;;;2107106;28;20037;-44
2022/07/25 05:54:02;;;;;;;;;;;;;;;;;;2107429;28;20289;-48
2022/07/25 05:55:03;;;;;;;;;;;;;;;;;;2107177;28;19982;-47
2022/07/25 05:56:04;;;;;;;;;;;;;;;;;;2107560;28;19993;-44
2022/07/25 05:57:05;;;;;;;;;;;;;;;;;;2107205;28;20381;-44
2022/07/25 05:58:06;;;;;;;;;;;;;;;;;;2107095;28;19925;-44
2022/07/25 05:59:07;;;;;;;;;;;;;;;;;;2107047;28;19931;-44
2022/07/25 06:00:08;;;;;;;;;;;;;;;;;;2107405;28;19924;-48
2022/07/25 06:01:09;;;;;;;;;;;;;;;;;;2107607;28;19924;-42
2022/07/25 06:02:10;;;;;;;;;;;;;;;;;;2107121;28;19924;-49
2022/07/25 06:03:11;;;;;;;;;;;;;;;;;;2107205;28;19972;-47
2022/07/25 06:04:12;;;;;;;;;;;;;;;;;;2107430;28;20376;-44
2022/07/25 06:05:13;;;;;;;;;;;;;;;;;;2107894;28;19931;-47
2022/07/25 06:06:14;;;;;;;;;;;;;;;;;;2106808;28;19928;-46
2022/07/25 06:07:14;;;;;;;;;;;;;;;;;;2107349;28;19956;-43
2022/07/25 06:08:17;;;;;;;;;;;;;;;;;;2107497;28;19950;-49
2022/07/25 06:09:18;;;;;;;;;;;;;;;;;;2106879;28;19930;-46
2022/07/25 06:10:19;;;;;;;;;;;;;;;;;;2107603;28;19928;-44
2022/07/25 06:11:20;;;;;;;;;;;;;;;;;;2103356;28;20011;-43
2022/07/25 06:12:21;;;;;;;;;;;;;;;;;;2098717;28;20282;-43
2022/07/25 06:13:22;;;;;;;;;;;;;;;;;;2098999;28;20011;-47
2022/07/25 06:14:23;;;;;;;;;;;;;;;;;;2098592;28;20332;-47
2022/07/25 06:15:24;;;;;;;;;;;;;;;;;;2098914;28;19925;-47
2022/07/25 06:16:27;;;;;;;;;;;;;;;;;;2098534;28;20396;-47
2022/07/25 06:17:28;;;;;;;;;;;;;;;;;;2098901;28;19925;-48
2022/07/25 06:18:32;;;;;;;;;;;;;;;;;;2098706;28;19947;-43
2022/07/25 06:19:33;;;;;;;;;;;;;;;;;;2098541;28;19976;-43
2022/07/25 06:20:34;;;;;;;;;;;;;;;;;;2098704;28;20011;-43
2022/07/25 06:21:35;;;;;;;;;;;;;;;;;;2098686;28;20289;-46
2022/07/25 06:22:36;;;;;;;;;;;;;;;;;;2098587;28;20076;-45
2022/07/25 06:23:37;;;;;;;;;;;;;;;;;;2098981;28;20289;-48
2022/07/25 06:24:38;;;;;;;;;;;;;;;;;;2098470;28;19924;-46
2022/07/25 06:25:39;;;;;;;;;;;;;;;;;;2098528;28;20363;-47
2022/07/25 06:26:40;;;;;;;;;;;;;;;;;;2098442;28;19924;-47
2022/07/25 06:27:40;;;;;;;;;;;;;;;;;;2098557;28;20376;-47
2022/07/25 06:28:41;;;;;;;;;;;;;;;;;;2098719;28;19964;-47
2022/07/25 06:29:42;;;;;;;;;;;;;;;;;;2098973;28;19986;-44
2022/07/25 06:30:43;;;;;;;;;;;;;;;;;;2098532;28;20039;-43
2022/07/25 06:31:44;;;;;;;;;;;;;;;;;;2098571;28;20023;-43
2022/07/25 06:32:46;;;;;;;;;;;;;;;;;;2098662;28;19924;-43
2022/07/25 06:33:47;;;;;;;;;;;;;;;;;;2098390;28;20431;-44
2022/07/25 06:34:48;;;;;;;;;;;;;;;;;;2098678;28;19955;-43
2022/07/25 06:35:49;;;;;;;;;;;;;;;;;;2098507;28;19964;-44
2022/07/25 06:36:50;;;;;;;;;;;;;;;;;;2098525;28;19924;-44
2022/07/25 06:37:51;;;;;;;;;;;;;;;;;;2098512;28;19932;-43
2022/07/25 06:38:51;;;;;;;;;;;;;;;;;;2098780;28;20031;-43
2022/07/25 06:39:53;;;;;;;;;;;;;;;;;;2098654;28;19924;-46
2022/07/25 06:40:53;;;;;;;;;;;;;;;;;;2098589;28;20031;-47
2022/07/25 06:41:54;;;;;;;;;;;;;;;;;;2098601;28;20397;-43
2022/07/25 06:42:55;;;;;;;;;;;;;;;;;;2099116;28;19931;-44
2022/07/25 06:43:56;;;;;;;;;;;;;;;;;;2098669;28;19997;-43
2022/07/25 06:44:57;;;;;;;;;;;;;;;;;;2099221;28;19954;-47
2022/07/25 06:45:58;;;;;;;;;;;;;;;;;;2098895;28;19994;-46
2022/07/25 06:46:59;;;;;;;;;;;;;;;;;;2098884;28;20424;-43
2022/07/25 06:48:00;;;;;;;;;;;;;;;;;;2098716;28;20006;-47
2022/07/25 06:49:01;;;;;;;;;;;;;;;;;;2098548;28;19925;-44
2022/07/25 06:50:02;;;;;;;;;;;;;;;;;;2098546;28;19925;-47
2022/07/25 06:51:03;;;;;;;;;;;;;;;;;;2098228;28;19928;-48
2022/07/25 06:52:04;;;;;;;;;;;;;;;;;;2098699;28;19928;-44
2022/07/25 06:53:05;;;;;;;;;;;;;;;;;;2098847;28;20003;-45
2022/07/25 06:54:06;;;;;;;;;;;;;;;;;;2098728;28;20003;-47
2022/07/25 06:55:07;;;;;;;;;;;;;;;;;;2098950;28;19982;-43
2022/07/25 06:56:08;;;;;;;;;;;;;;;;;;2098888;28;20011;-44
2022/07/25 06:57:11;;;;;;;;;;;;;;;;;;2098512;28;19933;-43
2022/07/25 06:58:12;;;;;;;;;;;;;;;;;;2098409;28;19967;-43